createdAt,value
2022-12-04T00:02:10.924Z,1.83
2022-12-04T00:04:37.658Z,1.23
2022-12-04T00:07:04.308Z,1.61
2022-12-04T00:09:30.880Z,1.78
2022-12-04T00:11:57.379Z,1.06
2022-12-04T00:14:24.265Z,1.93
2022-12-04T00:16:51.047Z,1.38
2022-12-04T00:19:17.705Z,1.78
2022-12-04T00:21:45.286Z,1.72
2022-12-04T00:24:12.950Z,1.86
2022-12-04T00:26:39.537Z,1.76
2022-12-04T00:29:06.139Z,0.94
2022-12-04T00:31:33.506Z,1.39
2022-12-04T00:34:00.779Z,1.58
2022-12-04T00:36:29.478Z,1.72
2022-12-04T00:38:56.280Z,1.49
2022-12-04T00:41:25.062Z,1.92
2022-12-04T00:43:52.255Z,1.73
2022-12-04T00:46:20.117Z,1.85
2022-12-04T00:48:46.828Z,1.78
2022-12-04T00:51:19.837Z,1.84
2022-12-04T00:53:46.824Z,1.75
2022-12-04T00:56:18.670Z,1.30
2022-12-04T00:58:45.839Z,1.82
2022-12-04T01:01:15.662Z,1.44
2022-12-04T01:03:43.404Z,1.93
2022-12-04T01:06:22.183Z,1.78
2022-12-04T01:08:51.104Z,1.77
2022-12-04T01:11:18.513Z,1.81
2022-12-04T01:13:45.474Z,1.35
2022-12-04T01:16:17.437Z,1.86
2022-12-04T01:18:44.349Z,1.75
2022-12-04T01:21:11.569Z,1.35
2022-12-04T01:23:38.257Z,1.85
2022-12-04T01:26:05.033Z,1.71
2022-12-04T01:28:31.589Z,1.39
2022-12-04T01:31:02.812Z,1.96
2022-12-04T01:33:30.728Z,1.40
2022-12-04T01:35:59.551Z,1.51
2022-12-04T01:38:26.880Z,1.47
2022-12-04T01:40:53.937Z,1.78
2022-12-04T01:43:21.298Z,1.85
2022-12-04T01:45:51.026Z,2.02
2022-12-04T01:48:34.654Z,1.58
2022-12-04T01:51:18.693Z,1.88
2022-12-04T01:53:52.978Z,1.74
2022-12-04T01:56:24.186Z,1.75
2022-12-04T01:58:54.506Z,1.89
2022-12-04T02:01:21.395Z,1.92
2022-12-04T02:03:48.610Z,1.86
2022-12-04T02:06:15.343Z,1.47
2022-12-04T02:08:41.974Z,1.32
2022-12-04T02:11:09.659Z,1.99
2022-12-04T02:13:55.831Z,1.76
2022-12-04T02:16:37.647Z,1.77
2022-12-04T02:19:26.196Z,1.98
2022-12-04T02:21:55.693Z,1.85
2022-12-04T02:24:53.771Z,1.95
2022-12-04T02:27:38.728Z,1.93
2022-12-04T02:30:11.498Z,1.94
2022-12-04T02:33:00.948Z,1.29
2022-12-04T02:35:35.751Z,1.31
2022-12-04T02:38:34.694Z,1.94
2022-12-04T02:41:19.779Z,1.35
2022-12-04T02:43:51.728Z,1.98
2022-12-04T02:46:28.406Z,1.83
2022-12-04T02:48:59.232Z,1.41
2022-12-04T02:51:30.636Z,1.48
2022-12-04T02:54:02.735Z,1.75
2022-12-04T02:56:34.539Z,1.85
2022-12-04T02:59:09.707Z,1.77
2022-12-04T03:01:42.142Z,1.98
2022-12-04T03:04:15.980Z,1.79
2022-12-04T03:06:46.179Z,1.70
2022-12-04T03:09:18.548Z,1.82
2022-12-04T03:11:52.623Z,1.81
2022-12-04T03:14:33.901Z,1.88
2022-12-04T03:17:07.101Z,1.68
2022-12-04T03:19:39.407Z,1.32
2022-12-04T03:22:11.754Z,1.38
2022-12-04T03:24:44.723Z,1.80
2022-12-04T03:27:34.553Z,1.94
2022-12-04T03:30:09.142Z,1.94
2022-12-04T03:33:10.472Z,2.00
2022-12-04T03:36:09.489Z,2.01
2022-12-04T03:38:42.920Z,1.49
2022-12-04T03:41:24.716Z,1.64
2022-12-04T03:44:00.518Z,2.01
2022-12-04T03:46:35.008Z,1.69
2022-12-04T03:49:12.689Z,2.03
2022-12-04T03:51:46.320Z,1.82
2022-12-04T03:54:32.320Z,1.81
2022-12-04T03:57:08.768Z,1.92
2022-12-04T03:59:42.004Z,1.85
2022-12-04T04:02:12.363Z,1.36
2022-12-04T04:04:43.424Z,1.48
2022-12-04T04:07:22.974Z,1.39
2022-12-04T04:09:54.184Z,2.01
2022-12-04T04:12:27.062Z,1.90
2022-12-04T04:15:14.194Z,2.07
2022-12-04T04:18:07.575Z,1.83
2022-12-04T04:20:57.211Z,1.91
2022-12-04T04:23:44.510Z,2.11
2022-12-04T04:26:13.198Z,2.09
2022-12-04T04:28:42.197Z,1.49
2022-12-04T04:31:08.788Z,2.06
2022-12-04T04:33:45.883Z,2.04
2022-12-04T04:36:21.989Z,2.07
2022-12-04T04:39:00.011Z,2.09
2022-12-04T04:41:35.940Z,2.09
2022-12-04T04:44:46.139Z,2.13
2022-12-04T04:47:30.033Z,1.85
2022-12-04T04:49:59.089Z,2.11
2022-12-04T04:52:25.712Z,1.47
2022-12-04T04:54:52.619Z,1.45
2022-12-04T04:57:31.094Z,1.34
2022-12-04T04:59:57.879Z,1.50
2022-12-04T05:02:27.043Z,2.10
2022-12-04T05:04:55.389Z,1.45
2022-12-04T05:07:21.932Z,2.13
2022-12-04T05:09:48.567Z,2.04
2022-12-04T05:12:15.142Z,2.06
2022-12-04T05:14:41.738Z,1.44
2022-12-04T05:17:12.530Z,2.03
2022-12-04T05:19:56.284Z,1.87
2022-12-04T05:22:31.752Z,2.09
2022-12-04T05:24:58.886Z,1.90
2022-12-04T05:27:26.494Z,1.65
2022-12-04T05:29:54.701Z,1.94
2022-12-04T05:32:23.762Z,1.96
2022-12-04T05:34:51.626Z,1.58
2022-12-04T05:37:18.825Z,2.12
2022-12-04T05:39:46.075Z,1.47
2022-12-04T05:42:13.055Z,1.58
2022-12-04T05:44:42.573Z,1.46
2022-12-04T05:47:09.314Z,1.87
2022-12-04T05:49:35.924Z,1.96
2022-12-04T05:52:04.416Z,1.93
2022-12-04T05:54:30.918Z,1.93
2022-12-04T05:56:57.476Z,1.58
2022-12-04T05:59:24.124Z,1.99
2022-12-04T06:01:50.680Z,2.01
2022-12-04T06:04:17.304Z,2.06
2022-12-04T06:06:43.960Z,1.90
2022-12-04T06:09:11.571Z,1.96
2022-12-04T06:11:40.345Z,1.87
2022-12-04T06:14:13.441Z,1.54
2022-12-04T06:16:43.253Z,1.60
2022-12-04T06:19:16.172Z,2.10
2022-12-04T06:21:46.580Z,2.14
2022-12-04T06:24:16.123Z,2.01
2022-12-04T06:27:04.082Z,1.63
2022-12-04T06:29:29.827Z,1.99
2022-12-04T06:31:56.534Z,2.03
2022-12-04T06:34:23.089Z,1.66
2022-12-04T06:36:49.732Z,2.08
2022-12-04T06:39:18.847Z,1.96
2022-12-04T06:41:47.464Z,1.54
2022-12-04T06:44:15.532Z,1.96
2022-12-04T06:46:46.915Z,2.02
2022-12-04T06:49:14.245Z,1.95
2022-12-04T06:51:41.051Z,1.98
2022-12-04T06:54:08.062Z,1.82
2022-12-04T06:56:35.186Z,1.96
2022-12-04T06:59:03.786Z,2.03
2022-12-04T07:01:32.644Z,1.61
2022-12-04T07:04:00.968Z,1.54
2022-12-04T07:06:38.845Z,2.03
2022-12-04T07:09:15.522Z,1.65
2022-12-04T07:11:43.233Z,2.06
2022-12-04T07:14:13.548Z,2.18
2022-12-04T07:16:42.356Z,2.20
2022-12-04T07:19:14.156Z,1.72
2022-12-04T07:21:41.828Z,1.70
2022-12-04T07:24:13.218Z,1.60
2022-12-04T07:26:39.692Z,2.22
2022-12-04T07:29:06.300Z,2.15
2022-12-04T07:31:32.982Z,2.12
2022-12-04T07:33:59.703Z,1.65
2022-12-04T07:36:27.164Z,1.70
2022-12-04T07:38:57.322Z,1.98
2022-12-04T07:41:24.448Z,1.33
2022-12-04T07:43:51.152Z,2.09
2022-12-04T07:46:27.876Z,2.24
2022-12-04T07:48:56.626Z,2.00
2022-12-04T07:51:26.479Z,2.09
2022-12-04T07:53:54.917Z,2.03
2022-12-04T07:56:21.610Z,2.19
2022-12-04T07:58:48.391Z,1.38
2022-12-04T08:01:16.656Z,2.36
2022-12-04T08:03:48.018Z,2.31
2022-12-04T08:06:19.545Z,2.10
2022-12-04T08:08:47.448Z,2.20
2022-12-04T08:11:16.917Z,2.05
2022-12-04T08:13:44.259Z,2.19
2022-12-04T08:16:11.984Z,2.27
2022-12-04T08:18:39.896Z,2.29
2022-12-04T08:21:12.084Z,1.98
2022-12-04T08:23:40.218Z,2.47
2022-12-04T08:26:07.630Z,1.59
2022-12-04T08:28:34.998Z,2.16
2022-12-04T08:31:06.853Z,2.10
2022-12-04T08:33:34.467Z,2.66
2022-12-04T08:36:01.518Z,2.66
2022-12-04T08:38:28.093Z,2.08
2022-12-04T08:40:54.602Z,2.50
2022-12-04T08:43:21.184Z,2.68
2022-12-04T08:45:59.127Z,2.71
2022-12-04T08:48:26.756Z,2.72
2022-12-04T08:50:53.996Z,2.32
2022-12-04T08:53:21.120Z,2.12
2022-12-04T08:55:48.156Z,2.54
2022-12-04T08:58:15.109Z,2.15
2022-12-04T09:00:42.168Z,2.07
2022-12-04T09:03:13.131Z,2.52
2022-12-04T09:05:40.194Z,2.53
2022-12-04T09:08:07.085Z,2.72
2022-12-04T09:10:36.191Z,2.23
2022-12-04T09:13:02.907Z,2.15
2022-12-04T09:15:29.830Z,2.49
2022-12-04T09:17:56.621Z,2.72
2022-12-04T09:20:23.137Z,2.50
2022-12-04T09:23:03.442Z,2.22
2022-12-04T09:25:31.338Z,2.58
2022-12-04T09:27:57.924Z,2.71
2022-12-04T09:30:24.470Z,2.72
2022-12-04T09:32:51.179Z,2.18
2022-12-04T09:35:17.736Z,2.37
2022-12-04T09:37:44.341Z,2.15
2022-12-04T09:40:28.535Z,2.65
2022-12-04T09:43:13.246Z,2.72
2022-12-04T09:45:47.766Z,2.63
2022-12-04T09:48:17.498Z,2.78
2022-12-04T09:50:46.478Z,2.58
2022-12-04T09:53:39.351Z,2.82
2022-12-04T09:56:09.941Z,2.09
2022-12-04T09:58:46.490Z,2.67
2022-12-04T10:01:42.250Z,2.71
2022-12-04T10:04:11.739Z,2.67
2022-12-04T10:06:47.603Z,2.67
2022-12-04T10:09:23.794Z,2.57
2022-12-04T10:12:04.577Z,2.69
2022-12-04T10:15:03.962Z,2.68
2022-12-04T10:17:45.000Z,1.98
2022-12-04T10:20:35.105Z,2.61
2022-12-04T10:23:35.005Z,2.56
2022-12-04T10:26:05.085Z,2.80
2022-12-04T10:28:36.738Z,2.76
2022-12-04T10:31:06.233Z,2.21
2022-12-04T10:33:39.742Z,2.33
2022-12-04T10:36:09.197Z,2.87
2022-12-04T10:38:57.773Z,2.94
2022-12-04T10:41:35.031Z,2.83
2022-12-04T10:44:01.836Z,2.07
2022-12-04T10:46:31.484Z,2.70
2022-12-04T10:49:01.733Z,3.07
2022-12-04T10:51:43.490Z,2.88
2022-12-04T10:54:19.011Z,3.02
2022-12-04T10:57:03.583Z,2.96
2022-12-04T10:59:31.062Z,2.94
2022-12-04T11:02:12.373Z,2.96
2022-12-04T11:04:40.327Z,2.60
2022-12-04T11:07:18.499Z,2.94
2022-12-04T11:09:55.290Z,3.06
2022-12-04T11:12:22.978Z,2.99
2022-12-04T11:15:17.641Z,2.54
2022-12-04T11:17:44.162Z,2.35
2022-12-04T11:20:18.230Z,3.08
2022-12-04T11:22:58.129Z,3.16
2022-12-04T11:25:45.928Z,2.52
2022-12-04T11:28:39.917Z,3.17
2022-12-04T11:31:05.943Z,2.69
2022-12-04T11:33:37.527Z,2.58
2022-12-04T11:36:26.607Z,3.24
2022-12-04T11:39:03.436Z,3.10
2022-12-04T11:41:31.961Z,3.21
2022-12-04T11:44:00.607Z,3.20
2022-12-04T11:46:34.068Z,3.23
2022-12-04T11:49:03.374Z,3.24
2022-12-04T11:51:45.259Z,3.24
2022-12-04T11:54:29.924Z,3.23
2022-12-04T11:57:18.203Z,3.24
2022-12-04T11:59:52.462Z,3.32
2022-12-04T12:02:38.495Z,3.38
2022-12-04T12:05:27.176Z,2.75
2022-12-04T12:08:11.913Z,3.44
2022-12-04T12:11:12.296Z,3.47
2022-12-04T12:13:57.655Z,3.52
2022-12-04T12:17:09.087Z,3.52
2022-12-04T12:19:44.857Z,3.52
2022-12-04T12:22:30.078Z,3.51
2022-12-04T12:25:16.133Z,3.50
2022-12-04T12:28:00.871Z,3.51
2022-12-04T12:30:31.240Z,3.01
2022-12-04T12:33:18.820Z,3.50
2022-12-04T12:36:10.431Z,3.49
2022-12-04T12:38:58.802Z,3.47
2022-12-04T12:41:30.700Z,3.38
2022-12-04T12:44:02.829Z,3.46
2022-12-04T12:46:37.367Z,3.13
2022-12-04T12:49:20.907Z,2.90
2022-12-04T12:51:54.659Z,3.48
2022-12-04T12:54:40.911Z,3.34
2022-12-04T12:57:15.108Z,3.36
2022-12-04T12:59:48.500Z,3.48
2022-12-04T13:02:23.150Z,2.85
2022-12-04T13:04:53.839Z,3.34
2022-12-04T13:07:27.780Z,3.04
2022-12-04T13:10:07.127Z,3.48
2022-12-04T13:12:44.629Z,3.32
2022-12-04T13:15:21.170Z,3.47
2022-12-04T13:17:50.242Z,3.29
2022-12-04T13:20:22.348Z,2.90
2022-12-04T13:23:12.053Z,3.41
2022-12-04T13:25:41.513Z,3.45
2022-12-04T13:28:17.942Z,2.91
2022-12-04T13:30:51.989Z,3.44
2022-12-04T13:33:35.613Z,2.93
2022-12-04T13:36:20.735Z,3.42
2022-12-04T13:39:12.219Z,3.45
2022-12-04T13:41:39.313Z,3.40
2022-12-04T13:44:22.156Z,3.41
2022-12-04T13:46:55.570Z,3.45
2022-12-04T13:49:22.068Z,3.46
2022-12-04T13:51:49.851Z,3.47
2022-12-04T13:54:16.316Z,3.50
2022-12-04T13:57:15.138Z,3.42
2022-12-04T13:59:42.378Z,3.51
2022-12-04T14:02:25.911Z,3.40
2022-12-04T14:04:57.556Z,3.45
2022-12-04T14:07:37.115Z,3.44
2022-12-04T14:10:15.869Z,3.47
2022-12-04T14:12:49.993Z,2.98
2022-12-04T14:15:26.896Z,3.42
2022-12-04T14:18:17.388Z,3.31
2022-12-04T14:20:44.732Z,3.34
2022-12-04T14:23:19.910Z,3.42
2022-12-04T14:25:46.437Z,3.20
2022-12-04T14:28:28.221Z,3.38
2022-12-04T14:31:16.629Z,3.41
2022-12-04T14:34:29.687Z,3.39
2022-12-04T14:36:57.650Z,2.94
2022-12-04T14:39:36.123Z,3.40
2022-12-04T14:42:11.784Z,3.40
2022-12-04T14:44:39.539Z,3.43
2022-12-04T14:47:19.436Z,3.39
2022-12-04T14:50:10.344Z,3.35
2022-12-04T14:52:52.991Z,3.38
2022-12-04T14:55:47.301Z,3.35
2022-12-04T14:58:29.765Z,3.36
2022-12-04T15:01:02.215Z,2.86
2022-12-04T15:03:34.306Z,3.37
2022-12-04T15:06:03.058Z,3.47
2022-12-04T15:08:29.662Z,3.07
2022-12-04T15:11:15.058Z,3.42
2022-12-04T15:13:41.865Z,3.44
2022-12-04T15:16:15.251Z,3.09
2022-12-04T15:18:41.901Z,3.34
2022-12-04T15:21:11.158Z,3.44
2022-12-04T15:23:41.464Z,3.37
2022-12-04T15:26:12.929Z,3.45
2022-12-04T15:28:48.601Z,3.42
2022-12-04T15:31:22.022Z,3.40
2022-12-04T15:33:53.245Z,3.43
2022-12-04T15:36:25.810Z,3.47
2022-12-04T15:38:52.781Z,3.45
2022-12-04T15:41:30.136Z,3.39
2022-12-04T15:43:56.728Z,3.32
2022-12-04T15:46:29.966Z,2.75
2022-12-04T15:49:20.052Z,3.39
2022-12-04T15:51:47.838Z,3.37
2022-12-04T15:54:23.942Z,3.46
2022-12-04T15:57:13.372Z,2.68
2022-12-04T15:59:39.927Z,3.47
2022-12-04T16:02:41.973Z,3.44
2022-12-04T16:05:21.522Z,3.46
2022-12-04T16:07:51.006Z,2.71
2022-12-04T16:10:37.896Z,3.46
2022-12-04T16:13:05.652Z,2.94
2022-12-04T16:15:39.775Z,3.47
2022-12-04T16:18:09.627Z,3.43
2022-12-04T16:20:37.905Z,3.43
2022-12-04T16:23:04.844Z,3.46
2022-12-04T16:25:31.631Z,3.48
2022-12-04T16:27:59.985Z,3.49
2022-12-04T16:30:28.364Z,3.48
2022-12-04T16:32:55.000Z,3.47
2022-12-04T16:35:21.703Z,3.26
2022-12-04T16:37:48.358Z,2.88
2022-12-04T16:40:15.566Z,2.74
2022-12-04T16:42:43.108Z,3.26
2022-12-04T16:45:23.032Z,3.33
2022-12-04T16:47:49.545Z,3.21
2022-12-04T16:50:16.546Z,2.76
2022-12-04T16:52:43.280Z,3.25
2022-12-04T16:55:24.254Z,3.35
2022-12-04T16:57:50.754Z,3.31
2022-12-04T17:00:18.567Z,3.22
2022-12-04T17:02:45.686Z,3.24
2022-12-04T17:05:29.780Z,3.21
2022-12-04T17:07:56.376Z,3.22
2022-12-04T17:10:24.474Z,2.78
2022-12-04T17:12:54.799Z,2.94
2022-12-04T17:15:21.825Z,3.28
2022-12-04T17:17:48.504Z,3.28
2022-12-04T17:20:17.980Z,2.82
2022-12-04T17:22:44.895Z,3.25
2022-12-04T17:25:12.813Z,2.85
2022-12-04T17:27:39.680Z,3.31
2022-12-04T17:30:07.343Z,3.11
2022-12-04T17:32:34.949Z,2.75
2022-12-04T17:35:02.493Z,3.22
2022-12-04T17:37:29.236Z,2.87
2022-12-04T17:39:55.812Z,3.08
2022-12-04T17:42:22.366Z,3.18
2022-12-04T17:44:48.980Z,3.18
2022-12-04T17:47:15.741Z,3.16
2022-12-04T17:49:42.314Z,3.14
2022-12-04T17:52:08.864Z,3.28
2022-12-04T17:54:35.637Z,3.08
2022-12-04T17:57:02.315Z,3.35
2022-12-04T17:59:28.938Z,3.21
2022-12-04T18:01:55.454Z,3.26
2022-12-04T18:04:22.098Z,2.75
2022-12-04T18:06:48.696Z,3.35
2022-12-04T18:09:17.091Z,2.96
2022-12-04T18:11:46.520Z,3.36
2022-12-04T18:14:18.277Z,3.12
2022-12-04T18:16:49.223Z,2.88
2022-12-04T18:19:15.851Z,2.82
2022-12-04T18:21:42.526Z,3.41
2022-12-04T18:24:09.420Z,3.34
2022-12-04T18:26:40.837Z,3.39
2022-12-04T18:29:08.804Z,3.36
2022-12-04T18:31:35.445Z,2.78
2022-12-04T18:34:04.586Z,3.34
2022-12-04T18:36:32.012Z,3.25
2022-12-04T18:39:02.223Z,2.90
2022-12-04T18:41:29.900Z,3.16
2022-12-04T18:43:57.265Z,3.15
2022-12-04T18:46:25.070Z,3.43
2022-12-04T18:48:58.913Z,3.46
2022-12-04T18:51:29.843Z,3.45
2022-12-04T18:54:02.464Z,3.37
2022-12-04T18:56:30.008Z,3.48
2022-12-04T18:59:01.661Z,3.47
2022-12-04T19:01:28.751Z,3.40
2022-12-04T19:03:57.941Z,3.48
2022-12-04T19:06:52.471Z,3.48
2022-12-04T19:09:40.974Z,3.49
2022-12-04T19:12:11.585Z,3.09
2022-12-04T19:14:39.632Z,3.45
2022-12-04T19:17:06.316Z,3.37
2022-12-04T19:19:32.952Z,3.45
2022-12-04T19:22:01.108Z,3.33
2022-12-04T19:24:27.744Z,2.94
2022-12-04T19:26:54.401Z,3.37
2022-12-04T19:29:20.913Z,3.42
2022-12-04T19:31:47.550Z,3.34
2022-12-04T19:34:14.092Z,2.88
2022-12-04T19:36:41.281Z,3.11
2022-12-04T19:39:07.947Z,3.42
2022-12-04T19:41:35.277Z,3.10
2022-12-04T19:44:07.811Z,3.41
2022-12-04T19:46:41.290Z,3.47
2022-12-04T19:49:08.233Z,3.40
2022-12-04T19:51:38.063Z,3.38
2022-12-04T19:54:05.993Z,2.96
2022-12-04T19:56:34.333Z,2.98
2022-12-04T19:59:03.687Z,3.51
2022-12-04T20:01:32.318Z,3.11
2022-12-04T20:04:02.607Z,3.44
2022-12-04T20:06:32.502Z,3.51
2022-12-04T20:09:03.213Z,3.52
2022-12-04T20:11:30.464Z,3.42
2022-12-04T20:14:00.508Z,2.99
2022-12-04T20:16:28.880Z,3.55
2022-12-04T20:18:55.636Z,3.07
2022-12-04T20:21:28.162Z,3.05
2022-12-04T20:23:54.822Z,2.98
2022-12-04T20:26:24.421Z,3.17
2022-12-04T20:28:51.889Z,3.57
2022-12-04T20:31:28.275Z,3.48
2022-12-04T20:33:56.241Z,3.53
2022-12-04T20:36:24.925Z,3.47
2022-12-04T20:38:52.738Z,3.60
2022-12-04T20:41:20.262Z,3.01
2022-12-04T20:43:48.187Z,3.07
2022-12-04T20:46:17.741Z,3.43
2022-12-04T20:48:48.399Z,3.60
2022-12-04T20:51:26.632Z,3.25
2022-12-04T20:53:54.797Z,3.59
2022-12-04T20:56:25.865Z,3.51
2022-12-04T20:58:57.887Z,3.08
2022-12-04T21:01:25.371Z,3.24
2022-12-04T21:03:53.283Z,3.59
2022-12-04T21:06:34.548Z,3.28
2022-12-04T21:09:05.887Z,3.06
2022-12-04T21:11:35.410Z,2.97
2022-12-04T21:14:22.432Z,3.40
2022-12-04T21:16:49.255Z,3.49
2022-12-04T21:19:18.788Z,3.49
2022-12-04T21:21:45.962Z,3.57
2022-12-04T21:24:14.836Z,3.61
2022-12-04T21:26:41.641Z,3.63
2022-12-04T21:29:08.439Z,3.62
2022-12-04T21:31:36.402Z,3.63
2022-12-04T21:34:05.545Z,3.16
2022-12-04T21:36:32.042Z,3.65
2022-12-04T21:38:58.613Z,3.15
2022-12-04T21:41:45.435Z,3.70
2022-12-04T21:44:16.321Z,3.40
2022-12-04T21:46:44.433Z,3.15
2022-12-04T21:49:11.182Z,3.63
2022-12-04T21:51:56.843Z,3.70
2022-12-04T21:54:24.862Z,3.60
2022-12-04T21:56:51.488Z,3.63
2022-12-04T21:59:18.349Z,3.54
2022-12-04T22:01:45.388Z,3.74
2022-12-04T22:04:12.025Z,3.67
2022-12-04T22:06:38.720Z,3.75
2022-12-04T22:09:10.850Z,3.64
2022-12-04T22:11:38.601Z,3.59
2022-12-04T22:14:05.158Z,3.78
2022-12-04T22:16:35.735Z,3.72
2022-12-04T22:19:04.936Z,3.80
2022-12-04T22:21:31.548Z,3.74
2022-12-04T22:24:00.312Z,3.79
2022-12-04T22:26:28.519Z,3.40
2022-12-04T22:28:55.507Z,3.89
2022-12-04T22:31:24.888Z,3.43
2022-12-04T22:33:53.352Z,3.84
2022-12-04T22:36:45.552Z,4.01
2022-12-04T22:39:25.481Z,3.99
2022-12-04T22:41:52.165Z,3.92
2022-12-04T22:44:19.176Z,4.05
2022-12-04T22:46:45.848Z,4.07
2022-12-04T22:49:12.506Z,3.85
2022-12-04T22:51:39.038Z,3.79
2022-12-04T22:54:07.943Z,3.90
2022-12-04T22:56:34.495Z,3.90
2022-12-04T22:59:01.038Z,3.90
2022-12-04T23:01:30.276Z,3.39
2022-12-04T23:03:57.155Z,3.96
2022-12-04T23:06:26.343Z,3.82
2022-12-04T23:08:59.422Z,4.05
2022-12-04T23:11:27.141Z,3.54
2022-12-04T23:13:57.215Z,3.67
2022-12-04T23:16:24.637Z,3.96
2022-12-04T23:18:52.260Z,3.55
2022-12-04T23:21:20.775Z,3.97
2022-12-04T23:23:48.439Z,4.11
2022-12-04T23:26:17.873Z,3.66
2022-12-04T23:28:45.228Z,4.02
2022-12-04T23:31:12.292Z,3.99
2022-12-04T23:33:40.018Z,4.07
2022-12-04T23:36:08.325Z,4.09
2022-12-04T23:38:36.862Z,3.73
2022-12-04T23:41:08.027Z,4.13
2022-12-04T23:43:35.712Z,3.92
2022-12-04T23:46:08.943Z,3.75
2022-12-04T23:48:37.515Z,4.16
2022-12-04T23:51:04.197Z,3.63
2022-12-04T23:53:30.790Z,3.71
2022-12-04T23:56:10.488Z,3.76
2022-12-04T23:58:38.023Z,4.24
